createdAt,value
2023-03-14T00:02:01.599Z,67.09
2023-03-14T00:04:35.823Z,67.17
2023-03-14T00:07:08.379Z,67.30
2023-03-14T00:09:40.698Z,67.80
2023-03-14T00:12:14.720Z,67.96
2023-03-14T00:14:47.417Z,68.09
2023-03-14T00:17:20.785Z,67.99
2023-03-14T00:19:55.030Z,68.02
2023-03-14T00:22:28.759Z,68.21
2023-03-14T00:25:01.334Z,68.27
2023-03-14T00:27:33.983Z,68.33
2023-03-14T00:30:09.154Z,68.78
2023-03-14T00:32:43.265Z,68.99
2023-03-14T00:35:16.113Z,69.19
2023-03-14T00:37:48.520Z,69.77
2023-03-14T00:40:20.916Z,70.00
2023-03-14T00:42:53.712Z,70.22
2023-03-14T00:45:26.385Z,70.37
2023-03-14T00:47:58.758Z,70.63
2023-03-14T00:50:31.672Z,70.64
2023-03-14T00:53:04.816Z,70.65
2023-03-14T00:55:43.443Z,70.82
2023-03-14T00:58:18.253Z,71.05
2023-03-14T01:00:51.219Z,71.67
2023-03-14T01:03:25.262Z,71.37
2023-03-14T01:06:01.537Z,71.59
2023-03-14T01:08:34.208Z,71.52
2023-03-14T01:11:11.857Z,71.80
2023-03-14T01:13:45.782Z,71.55
2023-03-14T01:16:19.007Z,71.85
2023-03-14T01:18:52.104Z,71.78
2023-03-14T01:21:28.625Z,72.14
2023-03-14T01:24:02.181Z,72.40
2023-03-14T01:26:36.246Z,72.32
2023-03-14T01:29:08.983Z,72.53
2023-03-14T01:31:42.889Z,72.37
2023-03-14T01:34:16.163Z,72.53
2023-03-14T01:36:48.897Z,72.68
2023-03-14T01:39:21.855Z,72.81
2023-03-14T01:41:54.824Z,72.92
2023-03-14T01:44:27.977Z,72.66
2023-03-14T01:47:00.517Z,72.65
2023-03-14T01:49:37.240Z,72.80
2023-03-14T01:52:16.313Z,72.91
2023-03-14T01:54:58.228Z,73.15
2023-03-14T01:57:58.761Z,72.89
2023-03-14T02:00:31.362Z,73.37
2023-03-14T02:03:09.313Z,73.51
2023-03-14T02:05:44.209Z,73.49
2023-03-14T02:08:22.553Z,73.77
2023-03-14T02:11:02.489Z,73.67
2023-03-14T02:13:46.757Z,74.11
2023-03-14T02:16:19.566Z,74.31
2023-03-14T02:19:02.985Z,74.64
2023-03-14T02:22:06.528Z,74.68
2023-03-14T02:24:54.604Z,75.33
2023-03-14T02:27:27.562Z,75.32
2023-03-14T02:30:19.486Z,75.61
2023-03-14T02:33:07.629Z,75.52
2023-03-14T02:35:47.828Z,75.71
2023-03-14T02:38:38.073Z,75.97
2023-03-14T02:41:11.527Z,76.03
2023-03-14T02:43:47.178Z,76.18
2023-03-14T02:46:23.598Z,76.30
2023-03-14T02:49:02.297Z,76.75
2023-03-14T02:51:36.765Z,76.70
2023-03-14T02:54:10.757Z,77.10
2023-03-14T02:56:43.606Z,77.40
2023-03-14T02:59:18.352Z,77.36
2023-03-14T03:01:52.388Z,77.49
2023-03-14T03:04:24.725Z,77.58
2023-03-14T03:06:57.570Z,77.43
2023-03-14T03:09:30.752Z,77.63
2023-03-14T03:12:03.247Z,77.98
2023-03-14T03:14:38.740Z,78.02
2023-03-14T03:17:11.290Z,78.28
2023-03-14T03:19:43.771Z,78.18
2023-03-14T03:22:16.277Z,78.60
2023-03-14T03:24:49.073Z,79.03
2023-03-14T03:27:21.406Z,79.00
2023-03-14T03:29:54.149Z,78.96
2023-03-14T03:32:27.036Z,79.20
2023-03-14T03:35:00.309Z,79.01
2023-03-14T03:37:34.449Z,78.89
2023-03-14T03:40:08.834Z,78.94
2023-03-14T03:42:41.549Z,79.05
2023-03-14T03:45:15.073Z,79.05
2023-03-14T03:47:49.944Z,78.82
2023-03-14T03:50:22.589Z,78.83
2023-03-14T03:52:54.970Z,78.76
2023-03-14T03:55:29.143Z,79.02
2023-03-14T03:58:01.579Z,78.35
2023-03-14T04:00:34.373Z,78.57
2023-03-14T04:03:06.720Z,78.70
2023-03-14T04:05:40.857Z,77.69
2023-03-14T04:08:15.719Z,77.76
2023-03-14T04:10:50.367Z,77.50
2023-03-14T04:13:24.755Z,77.48
2023-03-14T04:15:59.498Z,77.42
2023-03-14T04:18:33.819Z,77.24
2023-03-14T04:21:06.907Z,77.13
2023-03-14T04:23:40.917Z,77.30
2023-03-14T04:26:14.604Z,76.96
2023-03-14T04:28:47.209Z,76.66
2023-03-14T04:31:22.468Z,76.19
2023-03-14T04:33:55.889Z,76.06
2023-03-14T04:36:33.042Z,76.27
2023-03-14T04:39:07.242Z,75.62
2023-03-14T04:41:42.223Z,74.33
2023-03-14T04:44:15.907Z,74.18
2023-03-14T04:46:48.992Z,73.83
2023-03-14T04:49:22.791Z,73.18
2023-03-14T04:51:56.108Z,72.47
2023-03-14T04:54:30.498Z,71.64
2023-03-14T04:57:05.588Z,70.85
2023-03-14T04:59:40.756Z,69.10
2023-03-14T05:02:15.507Z,68.03
2023-03-14T05:04:49.775Z,67.96
2023-03-14T05:07:42.268Z,66.56
2023-03-14T05:10:16.434Z,66.03
2023-03-14T05:12:50.884Z,64.46
2023-03-14T05:15:25.361Z,63.42
2023-03-14T05:17:57.736Z,62.93
2023-03-14T05:20:33.590Z,61.76
2023-03-14T05:23:19.612Z,61.40
2023-03-14T05:26:09.978Z,60.27
2023-03-14T05:28:47.499Z,60.48
2023-03-14T05:31:21.847Z,60.92
2023-03-14T05:33:59.038Z,61.08
2023-03-14T05:36:51.809Z,59.56
2023-03-14T05:39:55.494Z,58.60
2023-03-14T05:42:47.856Z,56.78
2023-03-14T05:45:21.937Z,54.88
2023-03-14T05:47:56.163Z,53.31
2023-03-14T05:50:30.413Z,52.97
2023-03-14T05:53:16.506Z,53.36
2023-03-14T05:55:58.262Z,54.96
2023-03-14T05:58:33.584Z,55.73
2023-03-14T06:01:08.632Z,56.80
2023-03-14T06:03:42.787Z,57.70
2023-03-14T06:06:15.490Z,58.22
2023-03-14T06:08:48.530Z,58.50
2023-03-14T06:11:21.747Z,59.03
2023-03-14T06:13:54.773Z,59.07
2023-03-14T06:16:27.234Z,58.85
2023-03-14T06:19:00.219Z,58.46
2023-03-14T06:21:34.566Z,58.21
2023-03-14T06:24:07.496Z,58.62
2023-03-14T06:26:40.975Z,58.92
2023-03-14T06:29:14.698Z,59.36
2023-03-14T06:31:48.160Z,59.23
2023-03-14T06:34:21.548Z,59.50
2023-03-14T06:36:54.065Z,59.52
2023-03-14T06:39:26.430Z,59.69
2023-03-14T06:42:00.935Z,59.70
2023-03-14T06:44:33.913Z,60.50
2023-03-14T06:47:06.512Z,59.90
2023-03-14T06:49:40.546Z,59.68
2023-03-14T06:52:14.043Z,59.76
2023-03-14T06:54:46.979Z,59.24
2023-03-14T06:57:19.948Z,59.27
2023-03-14T06:59:53.273Z,59.84
2023-03-14T07:02:39.771Z,59.14
2023-03-14T07:05:00.153Z,59.41
2023-03-14T07:07:32.877Z,59.57
2023-03-14T07:10:06.777Z,59.50
2023-03-14T07:12:40.832Z,59.34
2023-03-14T07:15:19.056Z,58.93
2023-03-14T07:17:49.822Z,58.62
2023-03-14T07:20:24.513Z,58.20
2023-03-14T07:22:57.459Z,56.72
2023-03-14T07:25:37.924Z,56.62
2023-03-14T07:28:11.928Z,54.75
2023-03-14T07:30:47.979Z,53.28
2023-03-14T07:33:25.581Z,51.76
2023-03-14T07:35:58.324Z,50.40
2023-03-14T07:38:30.980Z,49.51
2023-03-14T07:41:07.143Z,48.02
2023-03-14T07:43:48.863Z,47.08
2023-03-14T07:46:22.808Z,46.75
2023-03-14T07:48:55.704Z,45.31
2023-03-14T07:51:29.162Z,45.46
2023-03-14T07:54:02.179Z,43.95
2023-03-14T07:56:34.739Z,43.76
2023-03-14T07:59:07.270Z,42.69
2023-03-14T08:01:39.753Z,42.48
2023-03-14T08:04:13.105Z,43.64
2023-03-14T08:06:45.943Z,43.25
2023-03-14T08:09:18.394Z,42.83
2023-03-14T08:11:51.503Z,42.53
2023-03-14T08:14:25.841Z,42.50
2023-03-14T08:17:00.102Z,42.05
2023-03-14T08:19:33.333Z,41.95
2023-03-14T08:22:05.912Z,42.11
2023-03-14T08:24:38.731Z,41.56
2023-03-14T08:27:11.541Z,40.53
2023-03-14T08:29:44.882Z,40.47
2023-03-14T08:32:17.495Z,40.37
2023-03-14T08:34:50.106Z,40.12
2023-03-14T08:37:26.693Z,40.13
2023-03-14T08:39:57.312Z,39.64
2023-03-14T08:42:32.229Z,39.26
2023-03-14T08:45:06.495Z,39.64
2023-03-14T08:47:39.523Z,38.64
2023-03-14T08:50:16.196Z,38.41
2023-03-14T08:52:48.822Z,38.37
2023-03-14T08:55:21.884Z,38.44
2023-03-14T08:57:54.658Z,38.26
2023-03-14T09:00:28.025Z,38.41
2023-03-14T09:03:00.590Z,39.15
2023-03-14T09:05:37.786Z,37.69
2023-03-14T09:08:11.943Z,37.40
2023-03-14T09:10:44.566Z,38.24
2023-03-14T09:13:17.104Z,38.19
2023-03-14T09:15:57.881Z,38.11
2023-03-14T09:18:30.760Z,37.31
2023-03-14T09:21:03.510Z,37.30
2023-03-14T09:23:36.166Z,37.17
2023-03-14T09:26:08.881Z,36.98
2023-03-14T09:28:42.030Z,36.93
2023-03-14T09:31:14.772Z,37.67
2023-03-14T09:33:47.688Z,37.63
2023-03-14T09:36:20.306Z,37.66
2023-03-14T09:38:53.083Z,38.50
2023-03-14T09:41:39.254Z,37.59
2023-03-14T09:44:25.142Z,38.13
2023-03-14T09:50:07.035Z,37.29
2023-03-14T09:52:41.014Z,38.29
2023-03-14T09:55:36.646Z,35.87
2023-03-14T09:58:18.553Z,37.08
2023-03-14T10:00:54.166Z,37.19
2023-03-14T10:03:34.156Z,38.49
2023-03-14T10:06:11.630Z,38.73
2023-03-14T10:08:45.390Z,36.79
2023-03-14T10:11:20.606Z,37.09
2023-03-14T10:14:13.305Z,35.96
2023-03-14T10:16:47.558Z,36.17
2023-03-14T10:19:20.969Z,36.07
2023-03-14T10:21:55.578Z,36.06
2023-03-14T10:24:29.964Z,35.92
2023-03-14T10:27:31.443Z,36.69
2023-03-14T10:30:09.642Z,36.89
2023-03-14T10:32:43.409Z,37.67
2023-03-14T10:35:23.014Z,36.48
2023-03-14T10:37:58.792Z,36.81
2023-03-14T10:40:36.486Z,38.61
2023-03-14T10:43:11.779Z,38.02
2023-03-14T10:45:46.241Z,36.46
2023-03-14T10:48:33.851Z,36.12
2023-03-14T10:51:13.152Z,36.18
2023-03-14T10:54:00.251Z,36.54
2023-03-14T10:56:38.475Z,38.18
2023-03-14T10:59:15.961Z,36.87
2023-03-14T11:02:22.858Z,35.48
2023-03-14T11:05:19.601Z,34.93
2023-03-14T11:07:52.890Z,35.71
2023-03-14T11:10:56.268Z,36.17
2023-03-14T11:13:36.722Z,35.78
2023-03-14T11:16:31.266Z,36.23
2023-03-14T11:19:57.357Z,35.31
2023-03-14T11:23:15.577Z,33.52
2023-03-14T11:26:11.829Z,35.02
2023-03-14T11:28:51.491Z,35.08
2023-03-14T11:31:38.217Z,33.94
2023-03-14T11:34:28.272Z,34.18
2023-03-14T11:37:10.941Z,34.45
2023-03-14T11:42:46.540Z,33.81
2023-03-14T11:45:24.462Z,34.18
2023-03-14T11:48:05.779Z,34.03
2023-03-14T11:50:38.599Z,35.29
2023-03-14T11:53:42.763Z,34.39
2023-03-14T11:56:31.919Z,33.61
2023-03-14T11:59:29.330Z,34.27
2023-03-14T12:02:07.788Z,34.54
2023-03-14T12:05:01.449Z,36.13
2023-03-14T12:07:54.063Z,34.04
2023-03-14T12:10:28.363Z,35.20
2023-03-14T12:13:01.065Z,34.40
2023-03-14T12:15:35.755Z,34.37
2023-03-14T12:18:21.372Z,33.96
2023-03-14T12:21:03.733Z,33.85
2023-03-14T12:23:53.464Z,35.25
2023-03-14T12:26:35.744Z,35.30
2023-03-14T12:29:12.377Z,36.92
2023-03-14T12:31:50.977Z,36.59
2023-03-14T12:34:28.289Z,36.63
2023-03-14T12:37:20.580Z,36.91
2023-03-14T12:40:18.730Z,36.95
2023-03-14T12:43:00.940Z,36.35
2023-03-14T12:45:34.663Z,37.03
2023-03-14T12:48:25.248Z,38.02
2023-03-14T12:51:06.772Z,37.05
2023-03-14T12:53:50.256Z,37.09
2023-03-14T12:57:00.790Z,38.06
2023-03-14T12:59:49.621Z,37.76
2023-03-14T13:02:28.528Z,38.30
2023-03-14T13:05:09.062Z,37.36
2023-03-14T13:07:53.686Z,37.41
2023-03-14T13:10:37.941Z,37.52
2023-03-14T13:13:28.250Z,37.82
2023-03-14T13:16:06.156Z,38.25
2023-03-14T13:18:45.939Z,38.20
2023-03-14T13:21:26.723Z,37.46
2023-03-14T13:24:04.935Z,38.19
2023-03-14T13:26:44.625Z,37.82
2023-03-14T13:29:29.581Z,38.23
2023-03-14T13:32:06.591Z,37.92
2023-03-14T13:34:39.268Z,38.83
2023-03-14T13:37:24.512Z,39.69
2023-03-14T13:39:59.837Z,39.42
2023-03-14T13:42:38.637Z,39.18
2023-03-14T13:45:19.573Z,39.29
2023-03-14T13:47:53.466Z,39.16
2023-03-14T13:50:26.049Z,40.80
2023-03-14T13:52:59.474Z,39.96
2023-03-14T13:55:34.036Z,39.86
2023-03-14T13:58:11.034Z,40.22
2023-03-14T14:00:44.156Z,40.49
2023-03-14T14:03:16.906Z,40.50
2023-03-14T14:05:49.367Z,41.82
2023-03-14T14:08:22.542Z,40.94
2023-03-14T14:11:02.119Z,41.22
2023-03-14T14:13:36.254Z,41.91
2023-03-14T14:16:09.929Z,41.81
2023-03-14T14:18:45.375Z,42.57
2023-03-14T14:21:18.436Z,41.69
2023-03-14T14:23:51.141Z,41.71
2023-03-14T14:26:23.571Z,41.96
2023-03-14T14:29:07.318Z,42.54
2023-03-14T14:31:40.238Z,42.08
2023-03-14T14:34:21.862Z,41.96
2023-03-14T14:36:54.495Z,41.89
2023-03-14T14:39:30.178Z,42.71
2023-03-14T14:42:04.084Z,41.78
2023-03-14T14:44:37.671Z,41.53
2023-03-14T14:47:15.311Z,41.79
2023-03-14T14:49:48.974Z,41.28
2023-03-14T14:52:33.804Z,41.37
2023-03-14T14:55:15.309Z,41.58
2023-03-14T14:57:58.268Z,41.08
2023-03-14T15:00:31.567Z,41.22
2023-03-14T15:03:04.342Z,40.71
2023-03-14T15:05:38.166Z,41.38
2023-03-14T15:08:14.918Z,40.73
2023-03-14T15:10:47.367Z,41.08
2023-03-14T15:13:20.132Z,40.51
2023-03-14T15:15:59.541Z,41.13
2023-03-14T15:18:32.864Z,41.08
2023-03-14T15:21:05.757Z,40.22
2023-03-14T15:23:38.790Z,40.18
2023-03-14T15:26:19.980Z,41.02
2023-03-14T15:28:52.981Z,40.49
2023-03-14T15:31:25.485Z,40.10
2023-03-14T15:33:57.952Z,39.81
2023-03-14T15:36:33.205Z,40.42
2023-03-14T15:39:07.903Z,40.18
2023-03-14T15:41:40.395Z,40.29
2023-03-14T15:44:12.863Z,40.19
2023-03-14T15:46:45.485Z,40.10
2023-03-14T15:49:18.021Z,39.29
2023-03-14T15:51:51.127Z,38.97
2023-03-14T15:54:23.785Z,39.50
2023-03-14T15:56:57.348Z,40.03
2023-03-14T15:59:30.803Z,39.40
2023-03-14T16:02:04.536Z,38.85
2023-03-14T16:04:37.148Z,38.82
2023-03-14T16:07:10.142Z,38.63
2023-03-14T16:09:43.287Z,39.29
2023-03-14T16:12:16.708Z,38.65
2023-03-14T16:14:50.738Z,38.45
2023-03-14T16:17:23.118Z,37.89
2023-03-14T16:22:41.236Z,37.81
2023-03-14T16:25:14.039Z,38.14
2023-03-14T16:27:46.731Z,38.24
2023-03-14T16:30:20.864Z,37.89
2023-03-14T16:32:53.568Z,37.57
2023-03-14T16:35:26.190Z,37.09
2023-03-14T16:38:02.369Z,37.10
2023-03-14T16:40:35.518Z,36.90
2023-03-14T16:43:15.938Z,36.80
2023-03-14T16:45:43.233Z,36.66
2023-03-14T16:48:15.904Z,36.92
2023-03-14T16:50:51.477Z,36.49
2023-03-14T16:53:27.102Z,35.85
2023-03-14T16:56:00.739Z,35.41
2023-03-14T16:58:34.913Z,35.33
2023-03-14T17:01:12.979Z,35.91
2023-03-14T17:03:48.501Z,35.01
2023-03-14T17:06:26.493Z,34.33
2023-03-14T17:08:59.885Z,34.40
2023-03-14T17:11:34.205Z,34.09
2023-03-14T17:14:08.139Z,34.19
2023-03-14T17:16:40.932Z,34.26
2023-03-14T17:19:14.922Z,33.77
2023-03-14T17:21:48.715Z,34.01
2023-03-14T17:24:21.808Z,33.84
2023-03-14T17:26:54.483Z,33.79
2023-03-14T17:29:27.390Z,32.73
2023-03-14T17:31:59.950Z,33.00
2023-03-14T17:34:32.654Z,32.94
2023-03-14T17:37:05.318Z,33.09
2023-03-14T17:39:39.862Z,32.53
2023-03-14T17:42:12.579Z,32.91
2023-03-14T17:44:46.322Z,32.32
2023-03-14T17:47:20.686Z,32.01
2023-03-14T17:49:55.350Z,31.41
2023-03-14T17:52:28.074Z,31.36
2023-03-14T17:55:01.445Z,31.34
2023-03-14T17:57:42.769Z,31.61
2023-03-14T18:00:17.389Z,31.44
2023-03-14T18:02:50.092Z,31.04
2023-03-14T18:05:23.548Z,30.70
2023-03-14T18:07:57.085Z,30.63
2023-03-14T18:10:30.634Z,30.20
2023-03-14T18:13:03.318Z,30.08
2023-03-14T18:15:35.731Z,30.02
2023-03-14T18:18:09.346Z,29.82
2023-03-14T18:20:43.314Z,30.14
2023-03-14T18:23:15.732Z,29.63
2023-03-14T18:25:50.243Z,29.38
2023-03-14T18:28:23.750Z,29.59
2023-03-14T18:31:07.365Z,29.41
2023-03-14T18:33:42.412Z,29.54
2023-03-14T18:36:17.349Z,29.73
2023-03-14T18:38:53.136Z,30.04
2023-03-14T18:41:26.673Z,29.49
2023-03-14T18:44:00.620Z,29.89
2023-03-14T18:46:34.142Z,29.62
2023-03-14T18:49:10.590Z,29.59
2023-03-14T18:51:44.615Z,29.59
2023-03-14T18:54:20.043Z,29.04
2023-03-14T18:56:53.734Z,28.79
2023-03-14T18:59:26.714Z,28.35
2023-03-14T19:02:00.862Z,28.95
2023-03-14T19:04:35.145Z,28.46
2023-03-14T19:07:10.390Z,28.59
2023-03-14T19:09:43.271Z,28.97
2023-03-14T19:12:18.332Z,29.84
2023-03-14T19:14:53.022Z,29.47
2023-03-14T19:17:26.679Z,29.49
2023-03-14T19:19:59.272Z,29.56
2023-03-14T19:22:32.731Z,30.17
2023-03-14T19:25:06.927Z,30.40
2023-03-14T19:27:40.906Z,30.39
2023-03-14T19:30:13.839Z,31.01
2023-03-14T19:32:46.497Z,31.62
2023-03-14T19:35:19.216Z,31.00
2023-03-14T19:37:51.920Z,31.40
2023-03-14T19:40:24.442Z,30.34
2023-03-14T19:42:57.688Z,30.33
2023-03-14T19:45:36.710Z,30.29
2023-03-14T19:48:08.826Z,30.61
2023-03-14T19:50:43.674Z,31.05
2023-03-14T19:53:16.805Z,31.93
2023-03-14T19:55:50.470Z,31.95
2023-03-14T19:58:24.800Z,32.45
2023-03-14T20:00:58.935Z,33.07
2023-03-14T20:03:32.661Z,33.66
2023-03-14T20:06:12.592Z,33.71
2023-03-14T20:08:45.495Z,34.03
2023-03-14T20:11:19.363Z,34.71
2023-03-14T20:13:53.963Z,35.49
2023-03-14T20:16:27.218Z,35.80
2023-03-14T20:18:59.968Z,35.87
2023-03-14T20:21:32.980Z,36.30
2023-03-14T20:24:06.940Z,36.83
2023-03-14T20:26:40.764Z,37.35
2023-03-14T20:29:15.098Z,37.80
2023-03-14T20:31:47.770Z,38.48
2023-03-14T20:34:20.274Z,38.74
2023-03-14T20:36:55.431Z,39.44
2023-03-14T20:39:28.528Z,39.64
2023-03-14T20:42:01.604Z,40.01
2023-03-14T20:44:36.442Z,40.36
2023-03-14T20:47:09.345Z,40.70
2023-03-14T20:49:43.275Z,40.98
2023-03-14T20:52:15.859Z,41.32
2023-03-14T20:54:48.292Z,41.32
2023-03-14T20:57:21.322Z,41.93
2023-03-14T20:59:54.199Z,42.01
2023-03-14T21:02:27.254Z,42.33
2023-03-14T21:05:00.235Z,42.61
2023-03-14T21:07:38.276Z,43.13
2023-03-14T21:10:33.373Z,43.00
2023-03-14T21:13:06.368Z,43.32
2023-03-14T21:15:39.673Z,43.59
2023-03-14T21:18:12.395Z,44.03
2023-03-14T21:20:45.470Z,44.06
2023-03-14T21:23:19.085Z,44.39
2023-03-14T21:25:52.360Z,44.70
2023-03-14T21:28:25.907Z,45.04
2023-03-14T21:31:07.410Z,45.69
2023-03-14T21:33:40.226Z,45.93
2023-03-14T21:36:13.039Z,46.03
2023-03-14T21:38:45.641Z,46.27
2023-03-14T21:41:18.108Z,46.65
2023-03-14T21:43:51.398Z,47.15
2023-03-14T21:46:26.132Z,47.39
2023-03-14T21:48:58.605Z,48.34
2023-03-14T21:51:32.757Z,48.81
2023-03-14T21:54:06.896Z,49.08
2023-03-14T21:56:39.781Z,49.62
2023-03-14T21:59:14.569Z,49.87
2023-03-14T22:01:47.627Z,50.68
2023-03-14T22:04:22.009Z,50.87
2023-03-14T22:06:54.170Z,51.14
2023-03-14T22:09:26.664Z,51.33
2023-03-14T22:12:00.672Z,52.05
2023-03-14T22:14:33.452Z,52.69
2023-03-14T22:17:06.196Z,52.92
2023-03-14T22:19:39.375Z,53.06
2023-03-14T22:22:12.105Z,53.55
2023-03-14T22:24:45.040Z,54.49
2023-03-14T22:27:17.817Z,54.31
2023-03-14T22:29:50.139Z,54.82
2023-03-14T22:32:23.229Z,55.02
2023-03-14T22:34:55.556Z,55.83
2023-03-14T22:37:28.130Z,55.51
2023-03-14T22:40:00.462Z,56.25
2023-03-14T22:42:33.090Z,56.31
2023-03-14T22:45:07.371Z,56.73
2023-03-14T22:47:39.822Z,56.86
2023-03-14T22:50:13.496Z,57.54
2023-03-14T22:52:46.044Z,57.48
2023-03-14T22:55:18.605Z,57.89
2023-03-14T22:57:53.811Z,58.11
2023-03-14T23:00:27.134Z,58.66
2023-03-14T23:03:01.078Z,58.89
2023-03-14T23:05:34.420Z,59.04
2023-03-14T23:08:07.045Z,59.30
2023-03-14T23:10:40.781Z,59.64
2023-03-14T23:13:16.437Z,59.95
2023-03-14T23:15:49.488Z,59.98
2023-03-14T23:18:24.767Z,60.03
2023-03-14T23:21:13.134Z,59.80
2023-03-14T23:23:48.255Z,59.85
2023-03-14T23:26:24.125Z,60.20
2023-03-14T23:28:57.285Z,60.18
2023-03-14T23:31:30.259Z,60.29
2023-03-14T23:34:02.847Z,60.65
2023-03-14T23:39:19.775Z,61.06
2023-03-14T23:41:52.179Z,61.43
2023-03-14T23:44:26.978Z,61.67
2023-03-14T23:46:59.385Z,62.53
2023-03-14T23:49:31.883Z,62.16
2023-03-14T23:52:04.948Z,62.36
2023-03-14T23:54:39.040Z,62.67
2023-03-14T23:57:11.540Z,63.16
2023-03-14T23:59:44.593Z,63.64
